sensor_id;sensor_type;location;lat;lon;timestamp;temperature;humidity
6178;DHT22;3122;48.208;11.174;2022-08-04T00:03:35;20.60;1.00
6178;DHT22;3122;48.208;11.174;2022-08-04T00:13:41;20.30;1.00
6178;DHT22;3122;48.208;11.174;2022-08-04T00:18:54;20.40;1.00
6178;DHT22;3122;48.208;11.174;2022-08-04T00:23:55;20.30;1.00
6178;DHT22;3122;48.208;11.174;2022-08-04T00:28:57;20.10;1.00
6178;DHT22;3122;48.208;11.174;2022-08-04T00:33:59;20.20;1.00
6178;DHT22;3122;48.208;11.174;2022-08-04T00:39:01;20.30;1.00
6178;DHT22;3122;48.208;11.174;2022-08-04T00:50:03;20.20;1.00
6178;DHT22;3122;48.208;11.174;2022-08-04T00:55:22;20.10;1.00
6178;DHT22;3122;48.208;11.174;2022-08-04T01:00:22;20.00;1.00
6178;DHT22;3122;48.208;11.174;2022-08-04T01:16:09;19.70;1.00
6178;DHT22;3122;48.208;11.174;2022-08-04T01:26:59;19.70;1.00
6178;DHT22;3122;48.208;11.174;2022-08-04T01:32:12;19.50;1.00
6178;DHT22;3122;48.208;11.174;2022-08-04T01:43:03;19.30;1.00
6178;DHT22;3122;48.208;11.174;2022-08-04T01:48:06;19.20;1.00
6178;DHT22;3122;48.208;11.174;2022-08-04T01:53:07;19.20;1.00
6178;DHT22;3122;48.208;11.174;2022-08-04T01:58:08;19.10;1.00
6178;DHT22;3122;48.208;11.174;2022-08-04T02:03:10;19.10;1.00
6178;DHT22;3122;48.208;11.174;2022-08-04T02:08:21;19.10;1.00
6178;DHT22;3122;48.208;11.174;2022-08-04T02:24:02;18.90;1.00
6178;DHT22;3122;48.208;11.174;2022-08-04T02:29:20;18.80;1.00
6178;DHT22;3122;48.208;11.174;2022-08-04T02:34:41;18.70;1.00
6178;DHT22;3122;48.208;11.174;2022-08-04T02:39:44;18.50;1.00
6178;DHT22;3122;48.208;11.174;2022-08-04T02:44:50;18.60;1.00
6178;DHT22;3122;48.208;11.174;2022-08-04T02:49:51;18.60;1.00
6178;DHT22;3122;48.208;11.174;2022-08-04T02:54:54;18.60;1.00
6178;DHT22;3122;48.208;11.174;2022-08-04T03:05:12;18.40;1.00
6178;DHT22;3122;48.208;11.174;2022-08-04T03:16:02;18.30;1.00
6178;DHT22;3122;48.208;11.174;2022-08-04T03:53:29;17.70;1.00
6178;DHT22;3122;48.208;11.174;2022-08-04T04:19:49;17.40;1.00
6178;DHT22;3122;48.208;11.174;2022-08-04T04:36:01;17.40;1.00
6178;DHT22;3122;48.208;11.174;2022-08-04T04:41:18;17.30;1.00
6178;DHT22;3122;48.208;11.174;2022-08-04T04:51:49;17.60;1.00
6178;DHT22;3122;48.208;11.174;2022-08-04T04:57:12;17.60;1.00
6178;DHT22;3122;48.208;11.174;2022-08-04T05:18:26;18.20;1.00
6178;DHT22;3122;48.208;11.174;2022-08-04T05:23:28;18.40;1.00
6178;DHT22;3122;48.208;11.174;2022-08-04T05:28:38;18.60;1.00
6178;DHT22;3122;48.208;11.174;2022-08-04T05:33:57;18.80;1.00
6178;DHT22;3122;48.208;11.174;2022-08-04T05:39:00;18.90;1.00
6178;DHT22;3122;48.208;11.174;2022-08-04T05:44:02;19.10;1.00
6178;DHT22;3122;48.208;11.174;2022-08-04T05:49:03;19.20;1.00
6178;DHT22;3122;48.208;11.174;2022-08-04T05:54:05;19.30;1.00
6178;DHT22;3122;48.208;11.174;2022-08-04T05:59:07;19.50;1.00
6178;DHT22;3122;48.208;11.174;2022-08-04T06:04:10;19.70;1.00
6178;DHT22;3122;48.208;11.174;2022-08-04T06:09:12;19.90;1.00
6178;DHT22;3122;48.208;11.174;2022-08-04T06:14:14;20.10;1.00
6178;DHT22;3122;48.208;11.174;2022-08-04T06:19:16;20.20;1.00
6178;DHT22;3122;48.208;11.174;2022-08-04T06:24:21;20.40;1.00
6178;DHT22;3122;48.208;11.174;2022-08-04T06:29:24;20.70;1.00
6178;DHT22;3122;48.208;11.174;2022-08-04T06:34:37;20.90;1.00
6178;DHT22;3122;48.208;11.174;2022-08-04T06:39:38;21.10;1.00
6178;DHT22;3122;48.208;11.174;2022-08-04T06:44:39;21.30;1.00
6178;DHT22;3122;48.208;11.174;2022-08-04T06:49:42;21.40;1.00
6178;DHT22;3122;48.208;11.174;2022-08-04T06:54:52;21.60;1.00
6178;DHT22;3122;48.208;11.174;2022-08-04T06:59:58;21.70;1.00
6178;DHT22;3122;48.208;11.174;2022-08-04T07:05:00;21.90;1.00
6178;DHT22;3122;48.208;11.174;2022-08-04T07:10:04;22.10;1.00
6178;DHT22;3122;48.208;11.174;2022-08-04T07:15:06;22.20;1.00
6178;DHT22;3122;48.208;11.174;2022-08-04T07:20:08;22.40;1.00
6178;DHT22;3122;48.208;11.174;2022-08-04T07:25:09;22.50;1.00
6178;DHT22;3122;48.208;11.174;2022-08-04T07:30:10;22.70;1.00
6178;DHT22;3122;48.208;11.174;2022-08-04T07:35:12;22.90;1.00
6178;DHT22;3122;48.208;11.174;2022-08-04T07:40:13;23.10;1.00
6178;DHT22;3122;48.208;11.174;2022-08-04T07:45:18;23.30;1.00
6178;DHT22;3122;48.208;11.174;2022-08-04T07:50:19;23.40;1.00
6178;DHT22;3122;48.208;11.174;2022-08-04T07:55:21;23.60;1.00
6178;DHT22;3122;48.208;11.174;2022-08-04T08:00:22;23.70;1.00
6178;DHT22;3122;48.208;11.174;2022-08-04T08:05:23;23.80;1.00
6178;DHT22;3122;48.208;11.174;2022-08-04T08:10:24;24.00;1.00
6178;DHT22;3122;48.208;11.174;2022-08-04T08:15:24;24.10;1.00
6178;DHT22;3122;48.208;11.174;2022-08-04T08:20:26;24.30;1.00
6178;DHT22;3122;48.208;11.174;2022-08-04T08:25:29;24.50;1.00
6178;DHT22;3122;48.208;11.174;2022-08-04T08:30:31;24.70;1.00
6178;DHT22;3122;48.208;11.174;2022-08-04T08:35:40;24.80;1.00
6178;DHT22;3122;48.208;11.174;2022-08-04T08:40:52;25.00;1.00
6178;DHT22;3122;48.208;11.174;2022-08-04T08:56:48;25.80;1.00
6178;DHT22;3122;48.208;11.174;2022-08-04T09:02:27;25.70;1.00
6178;DHT22;3122;48.208;11.174;2022-08-04T09:13:12;26.00;1.00
6178;DHT22;3122;48.208;11.174;2022-08-04T09:18:41;26.30;1.00
6178;DHT22;3122;48.208;11.174;2022-08-04T09:23:59;26.40;1.00
6178;DHT22;3122;48.208;11.174;2022-08-04T09:35:09;26.70;1.00
6178;DHT22;3122;48.208;11.174;2022-08-04T09:50:52;27.20;1.00
6178;DHT22;3122;48.208;11.174;2022-08-04T09:56:02;27.30;1.00
6178;DHT22;3122;48.208;11.174;2022-08-04T10:01:13;27.40;1.00
6178;DHT22;3122;48.208;11.174;2022-08-04T10:22:18;28.00;1.00
6178;DHT22;3122;48.208;11.174;2022-08-04T10:37:40;28.20;1.00
6178;DHT22;3122;48.208;11.174;2022-08-04T10:42:52;28.30;1.00
6178;DHT22;3122;48.208;11.174;2022-08-04T10:48:06;28.40;1.00
6178;DHT22;3122;48.208;11.174;2022-08-04T10:53:13;28.50;1.00
6178;DHT22;3122;48.208;11.174;2022-08-04T10:58:20;28.80;1.00
6178;DHT22;3122;48.208;11.174;2022-08-04T11:03:33;29.00;1.00
6178;DHT22;3122;48.208;11.174;2022-08-04T11:09:12;29.20;1.00
6178;DHT22;3122;48.208;11.174;2022-08-04T11:14:13;29.50;1.00
6178;DHT22;3122;48.208;11.174;2022-08-04T11:25:31;30.00;1.00
6178;DHT22;3122;48.208;11.174;2022-08-04T11:30:08;29.80;1.00
6178;DHT22;3122;48.208;11.174;2022-08-04T11:35:31;30.20;1.00
6178;DHT22;3122;48.208;11.174;2022-08-04T11:40:39;30.30;1.00
6178;DHT22;3122;48.208;11.174;2022-08-04T11:45:53;30.60;1.00
6178;DHT22;3122;48.208;11.174;2022-08-04T11:50:56;30.80;1.00
6178;DHT22;3122;48.208;11.174;2022-08-04T11:56:01;30.90;1.00
6178;DHT22;3122;48.208;11.174;2022-08-04T12:06:55;31.00;1.00
6178;DHT22;3122;48.208;11.174;2022-08-04T12:12:08;31.00;1.00
6178;DHT22;3122;48.208;11.174;2022-08-04T12:17:17;30.50;1.00
6178;DHT22;3122;48.208;11.174;2022-08-04T12:22:23;31.00;1.00
6178;DHT22;3122;48.208;11.174;2022-08-04T12:27:30;31.70;1.00
6178;DHT22;3122;48.208;11.174;2022-08-04T12:32:39;31.30;1.00
6178;DHT22;3122;48.208;11.174;2022-08-04T12:42:56;31.10;1.00
6178;DHT22;3122;48.208;11.174;2022-08-04T12:48:00;31.30;1.00
6178;DHT22;3122;48.208;11.174;2022-08-04T12:53:11;31.40;1.00
6178;DHT22;3122;48.208;11.174;2022-08-04T12:58:17;31.20;1.00
6178;DHT22;3122;48.208;11.174;2022-08-04T13:03:21;31.20;1.00
6178;DHT22;3122;48.208;11.174;2022-08-04T13:08:23;31.70;1.00
6178;DHT22;3122;48.208;11.174;2022-08-04T13:13:28;31.60;1.00
6178;DHT22;3122;48.208;11.174;2022-08-04T13:18:33;31.50;1.00
6178;DHT22;3122;48.208;11.174;2022-08-04T13:23:35;31.60;1.00
6178;DHT22;3122;48.208;11.174;2022-08-04T13:28:39;31.90;1.00
6178;DHT22;3122;48.208;11.174;2022-08-04T13:33:42;32.10;1.00
6178;DHT22;3122;48.208;11.174;2022-08-04T13:38:53;32.10;1.00
6178;DHT22;3122;48.208;11.174;2022-08-04T13:43:57;31.70;1.00
6178;DHT22;3122;48.208;11.174;2022-08-04T13:49:01;32.00;1.00
6178;DHT22;3122;48.208;11.174;2022-08-04T13:54:02;32.90;1.00
6178;DHT22;3122;48.208;11.174;2022-08-04T13:59:05;32.50;1.00
6178;DHT22;3122;48.208;11.174;2022-08-04T14:04:17;32.50;1.00
6178;DHT22;3122;48.208;11.174;2022-08-04T14:09:21;32.40;1.00
6178;DHT22;3122;48.208;11.174;2022-08-04T14:14:27;32.20;1.00
6178;DHT22;3122;48.208;11.174;2022-08-04T14:19:48;32.10;1.00
6178;DHT22;3122;48.208;11.174;2022-08-04T14:29:55;32.50;1.00
6178;DHT22;3122;48.208;11.174;2022-08-04T14:34:57;32.50;1.00
6178;DHT22;3122;48.208;11.174;2022-08-04T14:39:57;32.40;1.00
6178;DHT22;3122;48.208;11.174;2022-08-04T14:44:58;32.40;1.00
6178;DHT22;3122;48.208;11.174;2022-08-04T14:50:00;33.30;1.00
6178;DHT22;3122;48.208;11.174;2022-08-04T14:55:21;33.40;1.00
6178;DHT22;3122;48.208;11.174;2022-08-04T15:00:33;33.70;1.00
6178;DHT22;3122;48.208;11.174;2022-08-04T15:05:35;33.70;1.00
6178;DHT22;3122;48.208;11.174;2022-08-04T15:10:36;33.20;1.00
6178;DHT22;3122;48.208;11.174;2022-08-04T15:15:41;34.00;1.00
6178;DHT22;3122;48.208;11.174;2022-08-04T15:20:42;34.00;1.00
6178;DHT22;3122;48.208;11.174;2022-08-04T15:25:50;33.80;1.00
6178;DHT22;3122;48.208;11.174;2022-08-04T15:30:53;34.00;1.00
6178;DHT22;3122;48.208;11.174;2022-08-04T15:36:09;34.60;1.00
6178;DHT22;3122;48.208;11.174;2022-08-04T15:41:24;34.20;1.00
6178;DHT22;3122;48.208;11.174;2022-08-04T15:51:46;34.50;1.00
6178;DHT22;3122;48.208;11.174;2022-08-04T15:56:48;35.00;1.00
6178;DHT22;3122;48.208;11.174;2022-08-04T16:13:17;35.10;1.00
6178;DHT22;3122;48.208;11.174;2022-08-04T16:18:39;35.70;1.00
6178;DHT22;3122;48.208;11.174;2022-08-04T16:28:53;35.30;1.00
6178;DHT22;3122;48.208;11.174;2022-08-04T16:34:00;35.30;1.00
6178;DHT22;3122;48.208;11.174;2022-08-04T16:39:03;35.60;1.00
6178;DHT22;3122;48.208;11.174;2022-08-04T16:44:30;35.70;1.00
6178;DHT22;3122;48.208;11.174;2022-08-04T16:49:35;35.10;1.00
6178;DHT22;3122;48.208;11.174;2022-08-04T16:54:36;35.70;1.00
6178;DHT22;3122;48.208;11.174;2022-08-04T16:59:37;36.50;1.00
6178;DHT22;3122;48.208;11.174;2022-08-04T17:04:37;36.30;1.00
6178;DHT22;3122;48.208;11.174;2022-08-04T17:09:48;36.60;1.00
6178;DHT22;3122;48.208;11.174;2022-08-04T17:14:49;36.90;1.00
6178;DHT22;3122;48.208;11.174;2022-08-04T17:19:52;36.90;1.00
6178;DHT22;3122;48.208;11.174;2022-08-04T17:24:58;36.30;1.00
6178;DHT22;3122;48.208;11.174;2022-08-04T17:29:58;36.30;1.00
6178;DHT22;3122;48.208;11.174;2022-08-04T17:34:59;36.10;1.00
6178;DHT22;3122;48.208;11.174;2022-08-04T17:40:08;35.90;1.00
6178;DHT22;3122;48.208;11.174;2022-08-04T17:45:18;35.50;1.00
6178;DHT22;3122;48.208;11.174;2022-08-04T17:50:29;34.60;1.00
6178;DHT22;3122;48.208;11.174;2022-08-04T17:55:45;33.80;1.00
6178;DHT22;3122;48.208;11.174;2022-08-04T18:00:46;33.20;1.00
6178;DHT22;3122;48.208;11.174;2022-08-04T18:05:48;32.70;1.00
6178;DHT22;3122;48.208;11.174;2022-08-04T18:10:49;32.30;1.00
6178;DHT22;3122;48.208;11.174;2022-08-04T18:16:02;31.80;1.00
6178;DHT22;3122;48.208;11.174;2022-08-04T18:21:03;31.70;1.00
6178;DHT22;3122;48.208;11.174;2022-08-04T18:26:04;31.30;1.00
6178;DHT22;3122;48.208;11.174;2022-08-04T18:31:05;30.90;1.00
6178;DHT22;3122;48.208;11.174;2022-08-04T18:36:06;30.70;1.00
6178;DHT22;3122;48.208;11.174;2022-08-04T18:41:06;30.50;1.00
6178;DHT22;3122;48.208;11.174;2022-08-04T18:46:07;30.20;1.00
6178;DHT22;3122;48.208;11.174;2022-08-04T18:51:08;29.90;1.00
6178;DHT22;3122;48.208;11.174;2022-08-04T18:56:08;29.70;1.00
6178;DHT22;3122;48.208;11.174;2022-08-04T19:01:09;29.30;1.00
6178;DHT22;3122;48.208;11.174;2022-08-04T19:06:10;29.10;1.00
6178;DHT22;3122;48.208;11.174;2022-08-04T19:11:11;29.00;1.00
6178;DHT22;3122;48.208;11.174;2022-08-04T19:16:13;28.70;1.00
6178;DHT22;3122;48.208;11.174;2022-08-04T19:21:13;28.60;1.00
6178;DHT22;3122;48.208;11.174;2022-08-04T19:26:14;28.50;1.00
6178;DHT22;3122;48.208;11.174;2022-08-04T19:31:15;28.20;1.00
6178;DHT22;3122;48.208;11.174;2022-08-04T19:36:15;28.00;1.00
6178;DHT22;3122;48.208;11.174;2022-08-04T19:41:16;27.90;1.00
6178;DHT22;3122;48.208;11.174;2022-08-04T19:46:17;27.80;1.00
6178;DHT22;3122;48.208;11.174;2022-08-04T19:51:17;27.30;1.00
6178;DHT22;3122;48.208;11.174;2022-08-04T19:56:20;27.10;1.00
6178;DHT22;3122;48.208;11.174;2022-08-04T20:01:21;27.00;1.00
6178;DHT22;3122;48.208;11.174;2022-08-04T20:06:21;26.70;1.00
6178;DHT22;3122;48.208;11.174;2022-08-04T20:11:23;26.70;1.00
6178;DHT22;3122;48.208;11.174;2022-08-04T20:16:24;26.60;1.00
6178;DHT22;3122;48.208;11.174;2022-08-04T20:21:24;26.50;1.00
6178;DHT22;3122;48.208;11.174;2022-08-04T20:26:25;26.30;1.00
6178;DHT22;3122;48.208;11.174;2022-08-04T20:31:25;26.10;1.00
6178;DHT22;3122;48.208;11.174;2022-08-04T20:36:26;26.10;1.00
6178;DHT22;3122;48.208;11.174;2022-08-04T20:41:26;25.80;1.00
6178;DHT22;3122;48.208;11.174;2022-08-04T20:46:27;25.80;1.00
6178;DHT22;3122;48.208;11.174;2022-08-04T20:51:28;25.60;1.00
6178;DHT22;3122;48.208;11.174;2022-08-04T20:56:29;25.50;1.00
6178;DHT22;3122;48.208;11.174;2022-08-04T21:01:29;24.90;1.00
6178;DHT22;3122;48.208;11.174;2022-08-04T21:06:30;25.00;1.00
6178;DHT22;3122;48.208;11.174;2022-08-04T21:11:30;24.90;1.00
6178;DHT22;3122;48.208;11.174;2022-08-04T21:16:31;24.90;1.00
6178;DHT22;3122;48.208;11.174;2022-08-04T21:21:32;24.80;1.00
6178;DHT22;3122;48.208;11.174;2022-08-04T21:26:32;24.60;1.00
6178;DHT22;3122;48.208;11.174;2022-08-04T21:31:33;24.10;1.00
6178;DHT22;3122;48.208;11.174;2022-08-04T21:36:33;24.20;1.00
6178;DHT22;3122;48.208;11.174;2022-08-04T21:41:34;24.20;1.00
6178;DHT22;3122;48.208;11.174;2022-08-04T21:46:35;24.30;1.00
6178;DHT22;3122;48.208;11.174;2022-08-04T21:51:37;24.30;1.00
6178;DHT22;3122;48.208;11.174;2022-08-04T21:56:38;24.30;1.00
6178;DHT22;3122;48.208;11.174;2022-08-04T22:01:39;24.30;1.00
6178;DHT22;3122;48.208;11.174;2022-08-04T22:06:39;24.30;1.00
6178;DHT22;3122;48.208;11.174;2022-08-04T22:11:43;24.10;1.00
6178;DHT22;3122;48.208;11.174;2022-08-04T22:16:45;23.90;1.00
6178;DHT22;3122;48.208;11.174;2022-08-04T22:21:45;23.80;1.00
6178;DHT22;3122;48.208;11.174;2022-08-04T22:26:46;23.60;1.00
6178;DHT22;3122;48.208;11.174;2022-08-04T22:31:48;23.40;1.00
6178;DHT22;3122;48.208;11.174;2022-08-04T22:36:49;23.40;1.00
6178;DHT22;3122;48.208;11.174;2022-08-04T22:41:49;23.30;1.00
6178;DHT22;3122;48.208;11.174;2022-08-04T22:46:52;23.30;1.00
6178;DHT22;3122;48.208;11.174;2022-08-04T22:51:53;23.40;1.00
6178;DHT22;3122;48.208;11.174;2022-08-04T22:56:53;23.10;1.00
6178;DHT22;3122;48.208;11.174;2022-08-04T23:01:54;23.00;1.00
6178;DHT22;3122;48.208;11.174;2022-08-04T23:06:54;22.90;1.00
6178;DHT22;3122;48.208;11.174;2022-08-04T23:11:55;22.90;1.00
6178;DHT22;3122;48.208;11.174;2022-08-04T23:16:55;22.70;1.00
6178;DHT22;3122;48.208;11.174;2022-08-04T23:21:56;22.90;1.00
6178;DHT22;3122;48.208;11.174;2022-08-04T23:26:57;23.00;1.00
6178;DHT22;3122;48.208;11.174;2022-08-04T23:31:59;23.00;1.00
6178;DHT22;3122;48.208;11.174;2022-08-04T23:36:59;22.90;1.00
6178;DHT22;3122;48.208;11.174;2022-08-04T23:42:00;22.80;1.00
6178;DHT22;3122;48.208;11.174;2022-08-04T23:47:02;22.70;1.00
6178;DHT22;3122;48.208;11.174;2022-08-04T23:52:03;22.60;1.00
6178;DHT22;3122;48.208;11.174;2022-08-04T23:57:04;22.50;1.00
